sensor_id;sensor_type;location;lat;lon;timestamp;temperature;humidity
39045;DHT22;52192;52.002;5.956;2023-02-01T00:01:24;7.30;76.00
39045;DHT22;52192;52.002;5.956;2023-02-01T00:03:50;7.30;75.90
39045;DHT22;52192;52.002;5.956;2023-02-01T00:06:15;7.30;75.70
39045;DHT22;52192;52.002;5.956;2023-02-01T00:08:41;7.30;75.30
39045;DHT22;52192;52.002;5.956;2023-02-01T00:17:55;7.40;74.00
39045;DHT22;52192;52.002;5.956;2023-02-01T00:20:20;7.40;74.20
39045;DHT22;52192;52.002;5.956;2023-02-01T00:22:46;7.30;74.10
39045;DHT22;52192;52.002;5.956;2023-02-01T00:25:11;7.30;74.20
39045;DHT22;52192;52.002;5.956;2023-02-01T00:27:37;7.30;74.40
39045;DHT22;52192;52.002;5.956;2023-02-01T00:36:47;7.20;74.50
39045;DHT22;52192;52.002;5.956;2023-02-01T00:39:13;7.10;74.60
39045;DHT22;52192;52.002;5.956;2023-02-01T00:41:39;7.20;74.60
39045;DHT22;52192;52.002;5.956;2023-02-01T00:47:27;7.20;74.30
39045;DHT22;52192;52.002;5.956;2023-02-01T00:49:53;7.20;74.50
39045;DHT22;52192;52.002;5.956;2023-02-01T00:52:18;7.20;74.40
39045;DHT22;52192;52.002;5.956;2023-02-01T00:54:44;7.20;74.50
39045;DHT22;52192;52.002;5.956;2023-02-01T00:57:10;7.20;74.30
39045;DHT22;52192;52.002;5.956;2023-02-01T00:59:35;7.20;74.30
39045;DHT22;52192;52.002;5.956;2023-02-01T01:02:01;7.20;74.20
39045;DHT22;52192;52.002;5.956;2023-02-01T01:04:26;7.30;74.10
39045;DHT22;52192;52.002;5.956;2023-02-01T01:06:52;7.30;74.10
39045;DHT22;52192;52.002;5.956;2023-02-01T01:09:18;7.30;74.00
39045;DHT22;52192;52.002;5.956;2023-02-01T01:11:43;7.40;74.00
39045;DHT22;52192;52.002;5.956;2023-02-01T01:14:10;7.40;73.90
39045;DHT22;52192;52.002;5.956;2023-02-01T01:16:37;7.40;73.80
39045;DHT22;52192;52.002;5.956;2023-02-01T01:19:03;7.40;73.80
39045;DHT22;52192;52.002;5.956;2023-02-01T01:21:29;7.40;73.80
39045;DHT22;52192;52.002;5.956;2023-02-01T01:23:55;7.40;74.30
39045;DHT22;52192;52.002;5.956;2023-02-01T01:26:23;7.40;73.80
39045;DHT22;52192;52.002;5.956;2023-02-01T01:28:49;7.40;73.80
39045;DHT22;52192;52.002;5.956;2023-02-01T01:31:17;7.40;73.90
39045;DHT22;52192;52.002;5.956;2023-02-01T01:33:42;7.40;73.90
39045;DHT22;52192;52.002;5.956;2023-02-01T01:36:10;7.30;74.00
39045;DHT22;52192;52.002;5.956;2023-02-01T01:38:40;7.30;74.00
39045;DHT22;52192;52.002;5.956;2023-02-01T01:41:07;7.30;74.10
39045;DHT22;52192;52.002;5.956;2023-02-01T01:44:05;7.30;74.20
39045;DHT22;52192;52.002;5.956;2023-02-01T01:46:37;7.40;74.20
39045;DHT22;52192;52.002;5.956;2023-02-01T01:49:10;7.30;74.40
39045;DHT22;52192;52.002;5.956;2023-02-01T01:51:44;7.30;74.40
39045;DHT22;52192;52.002;5.956;2023-02-01T01:57:16;7.30;74.50
39045;DHT22;52192;52.002;5.956;2023-02-01T02:06:47;7.20;74.80
39045;DHT22;52192;52.002;5.956;2023-02-01T02:09:15;7.20;75.00
39045;DHT22;52192;52.002;5.956;2023-02-01T02:11:41;7.20;75.00
39045;DHT22;52192;52.002;5.956;2023-02-01T02:14:09;7.20;75.20
39045;DHT22;52192;52.002;5.956;2023-02-01T02:41:13;7.40;74.70
39045;DHT22;52192;52.002;5.956;2023-02-01T02:44:32;7.40;74.80
39045;DHT22;52192;52.002;5.956;2023-02-01T02:47:29;7.40;74.80
39045;DHT22;52192;52.002;5.956;2023-02-01T02:50:05;7.40;74.90
39045;DHT22;52192;52.002;5.956;2023-02-01T02:53:12;7.40;75.00
39045;DHT22;52192;52.002;5.956;2023-02-01T02:55:58;7.30;75.10
39045;DHT22;52192;52.002;5.956;2023-02-01T02:58:45;7.20;75.40
39045;DHT22;52192;52.002;5.956;2023-02-01T03:01:30;7.20;76.20
39045;DHT22;52192;52.002;5.956;2023-02-01T03:04:15;7.10;75.70
39045;DHT22;52192;52.002;5.956;2023-02-01T03:06:44;7.10;75.80
39045;DHT22;52192;52.002;5.956;2023-02-01T03:11:47;7.00;76.00
39045;DHT22;52192;52.002;5.956;2023-02-01T03:14:35;7.00;76.10
39045;DHT22;52192;52.002;5.956;2023-02-01T03:17:14;7.00;76.20
39045;DHT22;52192;52.002;5.956;2023-02-01T03:19:46;7.00;76.20
39045;DHT22;52192;52.002;5.956;2023-02-01T03:22:21;7.00;76.30
39045;DHT22;52192;52.002;5.956;2023-02-01T03:24:57;7.00;76.40
39045;DHT22;52192;52.002;5.956;2023-02-01T03:27:30;7.00;76.50
39045;DHT22;52192;52.002;5.956;2023-02-01T03:30:17;6.90;76.60
39045;DHT22;52192;52.002;5.956;2023-02-01T03:32:47;6.90;76.70
39045;DHT22;52192;52.002;5.956;2023-02-01T03:35:33;6.90;76.90
39045;DHT22;52192;52.002;5.956;2023-02-01T03:38:27;6.90;77.00
39045;DHT22;52192;52.002;5.956;2023-02-01T03:43:39;6.90;77.00
39045;DHT22;52192;52.002;5.956;2023-02-01T03:46:12;7.00;77.10
39045;DHT22;52192;52.002;5.956;2023-02-01T03:48:41;7.00;77.20
39045;DHT22;52192;52.002;5.956;2023-02-01T03:51:09;7.00;77.20
39045;DHT22;52192;52.002;5.956;2023-02-01T03:53:36;7.10;77.00
39045;DHT22;52192;52.002;5.956;2023-02-01T03:56:03;7.10;76.90
39045;DHT22;52192;52.002;5.956;2023-02-01T03:58:30;7.20;76.90
39045;DHT22;52192;52.002;5.956;2023-02-01T04:00:57;7.20;76.80
39045;DHT22;52192;52.002;5.956;2023-02-01T04:03:24;7.30;76.80
39045;DHT22;52192;52.002;5.956;2023-02-01T04:05:51;7.30;77.30
39045;DHT22;52192;52.002;5.956;2023-02-01T04:08:20;7.30;76.80
39045;DHT22;52192;52.002;5.956;2023-02-01T04:10:46;7.30;76.80
39045;DHT22;52192;52.002;5.956;2023-02-01T04:13:12;7.30;76.80
39045;DHT22;52192;52.002;5.956;2023-02-01T04:15:38;7.30;76.80
39045;DHT22;52192;52.002;5.956;2023-02-01T04:18:04;7.30;76.80
39045;DHT22;52192;52.002;5.956;2023-02-01T04:20:30;7.30;76.80
39045;DHT22;52192;52.002;5.956;2023-02-01T04:22:55;7.30;76.90
39045;DHT22;52192;52.002;5.956;2023-02-01T04:25:21;7.30;77.00
39045;DHT22;52192;52.002;5.956;2023-02-01T04:27:47;7.30;76.90
39045;DHT22;52192;52.002;5.956;2023-02-01T04:30:13;7.40;76.90
39045;DHT22;52192;52.002;5.956;2023-02-01T04:32:39;7.40;76.70
39045;DHT22;52192;52.002;5.956;2023-02-01T04:35:05;7.50;76.60
39045;DHT22;52192;52.002;5.956;2023-02-01T04:37:31;7.50;76.50
39045;DHT22;52192;52.002;5.956;2023-02-01T04:39:57;7.50;76.40
39045;DHT22;52192;52.002;5.956;2023-02-01T04:42:22;7.50;76.30
39045;DHT22;52192;52.002;5.956;2023-02-01T04:44:48;7.60;76.20
39045;DHT22;52192;52.002;5.956;2023-02-01T04:47:14;7.70;76.00
39045;DHT22;52192;52.002;5.956;2023-02-01T04:49:41;7.70;75.70
39045;DHT22;52192;52.002;5.956;2023-02-01T04:52:06;7.70;75.60
39045;DHT22;52192;52.002;5.956;2023-02-01T04:54:32;7.80;75.50
39045;DHT22;52192;52.002;5.956;2023-02-01T04:56:58;7.80;75.40
39045;DHT22;52192;52.002;5.956;2023-02-01T04:59:24;7.90;75.20
39045;DHT22;52192;52.002;5.956;2023-02-01T05:01:50;7.90;74.80
39045;DHT22;52192;52.002;5.956;2023-02-01T05:04:16;7.90;74.60
39045;DHT22;52192;52.002;5.956;2023-02-01T05:06:44;7.90;74.60
39045;DHT22;52192;52.002;5.956;2023-02-01T05:09:10;8.00;74.50
39045;DHT22;52192;52.002;5.956;2023-02-01T05:11:35;8.00;74.10
39045;DHT22;52192;52.002;5.956;2023-02-01T05:14:20;8.00;74.10
39045;DHT22;52192;52.002;5.956;2023-02-01T05:16:46;8.00;74.00
39045;DHT22;52192;52.002;5.956;2023-02-01T05:19:11;8.10;74.00
39045;DHT22;52192;52.002;5.956;2023-02-01T05:21:37;8.10;73.80
39045;DHT22;52192;52.002;5.956;2023-02-01T05:24:03;8.10;73.50
39045;DHT22;52192;52.002;5.956;2023-02-01T05:26:36;8.20;73.60
39045;DHT22;52192;52.002;5.956;2023-02-01T05:29:02;8.20;73.60
39045;DHT22;52192;52.002;5.956;2023-02-01T05:31:28;8.20;73.50
39045;DHT22;52192;52.002;5.956;2023-02-01T05:33:54;8.30;73.40
39045;DHT22;52192;52.002;5.956;2023-02-01T05:36:20;8.30;73.20
39045;DHT22;52192;52.002;5.956;2023-02-01T05:38:45;8.30;73.30
39045;DHT22;52192;52.002;5.956;2023-02-01T05:41:11;8.30;73.40
39045;DHT22;52192;52.002;5.956;2023-02-01T05:43:37;8.30;73.40
39045;DHT22;52192;52.002;5.956;2023-02-01T05:46:03;8.30;73.40
39045;DHT22;52192;52.002;5.956;2023-02-01T05:48:29;8.30;73.40
39045;DHT22;52192;52.002;5.956;2023-02-01T05:50:54;8.30;73.40
39045;DHT22;52192;52.002;5.956;2023-02-01T05:53:20;8.30;73.30
39045;DHT22;52192;52.002;5.956;2023-02-01T05:55:46;8.30;73.40
39045;DHT22;52192;52.002;5.956;2023-02-01T05:58:12;8.30;73.30
39045;DHT22;52192;52.002;5.956;2023-02-01T06:00:38;8.30;73.40
39045;DHT22;52192;52.002;5.956;2023-02-01T06:03:04;8.40;73.50
39045;DHT22;52192;52.002;5.956;2023-02-01T06:05:30;8.30;73.10
39045;DHT22;52192;52.002;5.956;2023-02-01T06:07:56;8.30;73.30
39045;DHT22;52192;52.002;5.956;2023-02-01T06:10:22;8.30;73.30
39045;DHT22;52192;52.002;5.956;2023-02-01T06:12:48;8.30;73.40
39045;DHT22;52192;52.002;5.956;2023-02-01T06:15:14;8.30;73.40
39045;DHT22;52192;52.002;5.956;2023-02-01T06:17:44;8.30;73.40
39045;DHT22;52192;52.002;5.956;2023-02-01T06:20:12;8.30;73.50
39045;DHT22;52192;52.002;5.956;2023-02-01T06:22:38;8.30;73.30
39045;DHT22;52192;52.002;5.956;2023-02-01T06:25:05;8.30;73.30
39045;DHT22;52192;52.002;5.956;2023-02-01T06:27:32;8.30;73.50
39045;DHT22;52192;52.002;5.956;2023-02-01T06:29:58;8.30;73.50
39045;DHT22;52192;52.002;5.956;2023-02-01T06:32:23;8.30;73.40
39045;DHT22;52192;52.002;5.956;2023-02-01T06:34:49;8.30;73.30
39045;DHT22;52192;52.002;5.956;2023-02-01T06:37:15;8.30;73.40
39045;DHT22;52192;52.002;5.956;2023-02-01T06:39:41;8.30;73.30
39045;DHT22;52192;52.002;5.956;2023-02-01T06:42:06;8.30;73.20
39045;DHT22;52192;52.002;5.956;2023-02-01T06:44:32;8.40;73.10
39045;DHT22;52192;52.002;5.956;2023-02-01T06:46:58;8.40;73.10
39045;DHT22;52192;52.002;5.956;2023-02-01T06:49:23;8.40;73.20
39045;DHT22;52192;52.002;5.956;2023-02-01T06:51:49;8.40;73.20
39045;DHT22;52192;52.002;5.956;2023-02-01T06:54:15;8.40;73.20
39045;DHT22;52192;52.002;5.956;2023-02-01T06:56:40;8.40;73.00
39045;DHT22;52192;52.002;5.956;2023-02-01T06:59:07;8.30;73.00
39045;DHT22;52192;52.002;5.956;2023-02-01T07:01:33;8.30;73.20
39045;DHT22;52192;52.002;5.956;2023-02-01T07:03:59;8.30;73.30
39045;DHT22;52192;52.002;5.956;2023-02-01T07:06:25;8.40;73.30
39045;DHT22;52192;52.002;5.956;2023-02-01T07:08:50;8.30;73.30
39045;DHT22;52192;52.002;5.956;2023-02-01T07:11:17;8.40;73.50
39045;DHT22;52192;52.002;5.956;2023-02-01T07:13:44;8.40;73.50
39045;DHT22;52192;52.002;5.956;2023-02-01T07:16:13;8.40;73.60
39045;DHT22;52192;52.002;5.956;2023-02-01T07:18:39;8.30;73.60
39045;DHT22;52192;52.002;5.956;2023-02-01T07:21:05;8.30;73.80
39045;DHT22;52192;52.002;5.956;2023-02-01T07:23:30;8.30;73.80
39045;DHT22;52192;52.002;5.956;2023-02-01T07:25:58;8.30;73.90
39045;DHT22;52192;52.002;5.956;2023-02-01T07:28:24;8.30;73.90
39045;DHT22;52192;52.002;5.956;2023-02-01T07:30:50;8.30;74.00
39045;DHT22;52192;52.002;5.956;2023-02-01T07:33:23;8.30;73.90
39045;DHT22;52192;52.002;5.956;2023-02-01T07:35:50;8.30;74.00
39045;DHT22;52192;52.002;5.956;2023-02-01T07:38:16;8.20;74.10
39045;DHT22;52192;52.002;5.956;2023-02-01T07:40:42;8.20;74.10
39045;DHT22;52192;52.002;5.956;2023-02-01T07:43:08;8.20;74.20
39045;DHT22;52192;52.002;5.956;2023-02-01T07:45:35;8.20;74.20
39045;DHT22;52192;52.002;5.956;2023-02-01T07:48:02;8.20;74.30
39045;DHT22;52192;52.002;5.956;2023-02-01T07:50:28;8.10;74.30
39045;DHT22;52192;52.002;5.956;2023-02-01T07:52:54;8.10;74.30
39045;DHT22;52192;52.002;5.956;2023-02-01T07:55:20;8.20;74.30
39045;DHT22;52192;52.002;5.956;2023-02-01T07:57:46;8.20;74.30
39045;DHT22;52192;52.002;5.956;2023-02-01T08:00:13;8.20;74.20
39045;DHT22;52192;52.002;5.956;2023-02-01T08:02:58;8.20;74.10
39045;DHT22;52192;52.002;5.956;2023-02-01T08:05:24;8.20;74.00
39045;DHT22;52192;52.002;5.956;2023-02-01T08:07:50;8.20;74.20
39045;DHT22;52192;52.002;5.956;2023-02-01T08:10:17;8.20;74.20
39045;DHT22;52192;52.002;5.956;2023-02-01T08:12:43;8.20;74.20
39045;DHT22;52192;52.002;5.956;2023-02-01T08:15:13;8.30;74.20
39045;DHT22;52192;52.002;5.956;2023-02-01T08:17:39;8.30;74.10
39045;DHT22;52192;52.002;5.956;2023-02-01T08:20:05;8.30;74.00
39045;DHT22;52192;52.002;5.956;2023-02-01T08:22:32;8.40;73.80
39045;DHT22;52192;52.002;5.956;2023-02-01T08:24:57;8.40;73.80
39045;DHT22;52192;52.002;5.956;2023-02-01T08:27:27;8.40;73.80
39045;DHT22;52192;52.002;5.956;2023-02-01T08:29:52;8.40;73.70
39045;DHT22;52192;52.002;5.956;2023-02-01T08:32:19;8.40;73.60
39045;DHT22;52192;52.002;5.956;2023-02-01T08:34:45;8.40;73.60
39045;DHT22;52192;52.002;5.956;2023-02-01T08:37:10;8.40;73.50
39045;DHT22;52192;52.002;5.956;2023-02-01T08:39:36;8.50;73.60
39045;DHT22;52192;52.002;5.956;2023-02-01T08:42:02;8.50;73.60
39045;DHT22;52192;52.002;5.956;2023-02-01T08:44:46;8.50;73.50
39045;DHT22;52192;52.002;5.956;2023-02-01T08:47:12;8.60;73.40
39045;DHT22;52192;52.002;5.956;2023-02-01T08:49:38;8.60;73.30
39045;DHT22;52192;52.002;5.956;2023-02-01T08:52:04;8.70;73.10
39045;DHT22;52192;52.002;5.956;2023-02-01T08:54:29;8.80;72.80
39045;DHT22;52192;52.002;5.956;2023-02-01T08:56:55;8.90;72.80
39045;DHT22;52192;52.002;5.956;2023-02-01T08:59:21;9.00;72.60
39045;DHT22;52192;52.002;5.956;2023-02-01T09:01:47;9.00;72.30
39045;DHT22;52192;52.002;5.956;2023-02-01T09:04:12;9.10;72.10
39045;DHT22;52192;52.002;5.956;2023-02-01T09:06:40;9.20;72.10
39045;DHT22;52192;52.002;5.956;2023-02-01T09:09:06;9.30;71.80
39045;DHT22;52192;52.002;5.956;2023-02-01T09:11:32;9.40;71.70
39045;DHT22;52192;52.002;5.956;2023-02-01T09:13:57;9.40;71.60
39045;DHT22;52192;52.002;5.956;2023-02-01T09:16:23;9.50;71.30
39045;DHT22;52192;52.002;5.956;2023-02-01T09:18:49;9.60;71.00
39045;DHT22;52192;52.002;5.956;2023-02-01T09:21:14;9.50;70.90
39045;DHT22;52192;52.002;5.956;2023-02-01T09:23:40;9.50;71.00
39045;DHT22;52192;52.002;5.956;2023-02-01T09:26:06;9.50;71.10
39045;DHT22;52192;52.002;5.956;2023-02-01T09:28:32;9.40;71.00
39045;DHT22;52192;52.002;5.956;2023-02-01T09:30:59;9.50;71.30
39045;DHT22;52192;52.002;5.956;2023-02-01T09:33:26;9.50;71.30
39045;DHT22;52192;52.002;5.956;2023-02-01T09:36:00;9.40;71.40
39045;DHT22;52192;52.002;5.956;2023-02-01T09:38:26;9.50;71.40
39045;DHT22;52192;52.002;5.956;2023-02-01T09:40:54;9.50;71.30
39045;DHT22;52192;52.002;5.956;2023-02-01T09:43:45;9.50;71.20
39045;DHT22;52192;52.002;5.956;2023-02-01T09:46:24;9.60;71.00
39045;DHT22;52192;52.002;5.956;2023-02-01T09:49:00;9.60;71.10
39045;DHT22;52192;52.002;5.956;2023-02-01T09:51:38;9.60;71.00
39045;DHT22;52192;52.002;5.956;2023-02-01T09:54:25;9.60;70.90
39045;DHT22;52192;52.002;5.956;2023-02-01T09:57:11;9.60;70.70
39045;DHT22;52192;52.002;5.956;2023-02-01T09:59:41;9.50;70.60
39045;DHT22;52192;52.002;5.956;2023-02-01T10:02:17;9.50;70.70
39045;DHT22;52192;52.002;5.956;2023-02-01T10:04:44;9.40;71.10
39045;DHT22;52192;52.002;5.956;2023-02-01T10:10:53;9.40;70.90
39045;DHT22;52192;52.002;5.956;2023-02-01T10:22:08;9.30;71.20
39045;DHT22;52192;52.002;5.956;2023-02-01T10:24:41;9.20;71.20
39045;DHT22;52192;52.002;5.956;2023-02-01T10:27:18;9.30;71.30
39045;DHT22;52192;52.002;5.956;2023-02-01T10:29:49;9.20;71.30
39045;DHT22;52192;52.002;5.956;2023-02-01T10:32:28;9.20;71.60
39045;DHT22;52192;52.002;5.956;2023-02-01T10:35:00;9.30;72.00
39045;DHT22;52192;52.002;5.956;2023-02-01T10:37:29;9.20;72.80
39045;DHT22;52192;52.002;5.956;2023-02-01T10:39:56;9.20;73.90
39045;DHT22;52192;52.002;5.956;2023-02-01T10:42:27;9.10;74.40
39045;DHT22;52192;52.002;5.956;2023-02-01T10:44:56;9.10;74.80
39045;DHT22;52192;52.002;5.956;2023-02-01T10:47:23;9.00;75.10
39045;DHT22;52192;52.002;5.956;2023-02-01T10:55:34;8.90;76.40
39045;DHT22;52192;52.002;5.956;2023-02-01T10:58:03;8.80;76.90
39045;DHT22;52192;52.002;5.956;2023-02-01T11:00:44;8.70;77.30
39045;DHT22;52192;52.002;5.956;2023-02-01T11:03:42;8.70;77.80
39045;DHT22;52192;52.002;5.956;2023-02-01T11:08:48;8.60;78.60
39045;DHT22;52192;52.002;5.956;2023-02-01T11:11:15;8.60;78.90
39045;DHT22;52192;52.002;5.956;2023-02-01T11:13:41;8.50;79.10
39045;DHT22;52192;52.002;5.956;2023-02-01T11:16:12;8.50;79.30
39045;DHT22;52192;52.002;5.956;2023-02-01T11:18:38;8.50;79.20
39045;DHT22;52192;52.002;5.956;2023-02-01T11:21:05;8.50;79.10
39045;DHT22;52192;52.002;5.956;2023-02-01T11:23:32;8.50;78.80
39045;DHT22;52192;52.002;5.956;2023-02-01T11:26:23;8.50;78.50
39045;DHT22;52192;52.002;5.956;2023-02-01T11:29:02;8.60;78.10
39045;DHT22;52192;52.002;5.956;2023-02-01T11:31:28;8.60;77.60
39045;DHT22;52192;52.002;5.956;2023-02-01T11:34:16;8.60;77.40
39045;DHT22;52192;52.002;5.956;2023-02-01T11:36:42;8.70;77.40
39045;DHT22;52192;52.002;5.956;2023-02-01T11:39:23;8.70;77.40
39045;DHT22;52192;52.002;5.956;2023-02-01T11:42:03;8.80;77.20
39045;DHT22;52192;52.002;5.956;2023-02-01T11:44:36;8.80;76.70
39045;DHT22;52192;52.002;5.956;2023-02-01T11:47:30;8.70;76.50
39045;DHT22;52192;52.002;5.956;2023-02-01T11:50:05;8.80;76.90
39045;DHT22;52192;52.002;5.956;2023-02-01T11:55:07;8.70;76.80
39045;DHT22;52192;52.002;5.956;2023-02-01T12:37:01;9.30;75.20
39045;DHT22;52192;52.002;5.956;2023-02-01T12:39:53;9.40;75.00
39045;DHT22;52192;52.002;5.956;2023-02-01T12:42:33;9.50;74.70
39045;DHT22;52192;52.002;5.956;2023-02-01T12:45:19;9.50;74.50
39045;DHT22;52192;52.002;5.956;2023-02-01T12:48:05;9.50;74.20
39045;DHT22;52192;52.002;5.956;2023-02-01T12:50:41;9.50;74.20
39045;DHT22;52192;52.002;5.956;2023-02-01T12:53:28;9.60;74.30
39045;DHT22;52192;52.002;5.956;2023-02-01T12:56:00;9.60;74.20
39045;DHT22;52192;52.002;5.956;2023-02-01T12:58:47;9.60;73.50
39045;DHT22;52192;52.002;5.956;2023-02-01T13:01:37;9.60;73.50
39045;DHT22;52192;52.002;5.956;2023-02-01T13:04:32;9.70;73.50
39045;DHT22;52192;52.002;5.956;2023-02-01T13:07:53;9.60;73.20
39045;DHT22;52192;52.002;5.956;2023-02-01T13:10:11;9.60;73.50
39045;DHT22;52192;52.002;5.956;2023-02-01T13:12:43;9.60;73.50
39045;DHT22;52192;52.002;5.956;2023-02-01T13:15:19;9.60;73.10
39045;DHT22;52192;52.002;5.956;2023-02-01T13:17:47;9.70;73.10
39045;DHT22;52192;52.002;5.956;2023-02-01T13:20:34;9.60;73.00
39045;DHT22;52192;52.002;5.956;2023-02-01T13:23:07;9.70;73.00
39045;DHT22;52192;52.002;5.956;2023-02-01T13:25:47;9.70;73.00
39045;DHT22;52192;52.002;5.956;2023-02-01T13:44:11;9.70;72.40
39045;DHT22;52192;52.002;5.956;2023-02-01T13:46:44;9.70;72.50
39045;DHT22;52192;52.002;5.956;2023-02-01T13:49:23;9.70;72.50
39045;DHT22;52192;52.002;5.956;2023-02-01T13:51:54;9.70;72.30
39045;DHT22;52192;52.002;5.956;2023-02-01T13:54:38;9.70;72.70
39045;DHT22;52192;52.002;5.956;2023-02-01T14:00:36;9.70;73.40
39045;DHT22;52192;52.002;5.956;2023-02-01T14:13:34;9.60;73.80
39045;DHT22;52192;52.002;5.956;2023-02-01T14:26:50;9.70;73.30
39045;DHT22;52192;52.002;5.956;2023-02-01T14:35:07;9.80;72.20
39045;DHT22;52192;52.002;5.956;2023-02-01T14:42:38;9.90;72.00
39045;DHT22;52192;52.002;5.956;2023-02-01T14:55:36;9.90;72.40
39045;DHT22;52192;52.002;5.956;2023-02-01T14:58:13;9.90;72.30
39045;DHT22;52192;52.002;5.956;2023-02-01T15:00:55;9.90;72.10
39045;DHT22;52192;52.002;5.956;2023-02-01T15:03:39;9.90;72.00
39045;DHT22;52192;52.002;5.956;2023-02-01T15:06:39;9.90;72.10
39045;DHT22;52192;52.002;5.956;2023-02-01T15:11:54;9.90;71.80
39045;DHT22;52192;52.002;5.956;2023-02-01T15:14:20;10.00;71.90
39045;DHT22;52192;52.002;5.956;2023-02-01T15:16:45;10.00;71.90
39045;DHT22;52192;52.002;5.956;2023-02-01T15:19:22;10.00;71.80
39045;DHT22;52192;52.002;5.956;2023-02-01T15:21:51;10.00;72.20
39045;DHT22;52192;52.002;5.956;2023-02-01T15:24:26;10.00;73.00
39045;DHT22;52192;52.002;5.956;2023-02-01T15:26:53;9.90;74.00
39045;DHT22;52192;52.002;5.956;2023-02-01T15:29:21;9.80;74.90
39045;DHT22;52192;52.002;5.956;2023-02-01T15:31:50;9.70;75.50
39045;DHT22;52192;52.002;5.956;2023-02-01T15:34:16;9.60;75.80
39045;DHT22;52192;52.002;5.956;2023-02-01T15:36:43;9.60;76.60
39045;DHT22;52192;52.002;5.956;2023-02-01T15:39:24;9.50;76.40
39045;DHT22;52192;52.002;5.956;2023-02-01T15:42:00;9.20;75.80
39045;DHT22;52192;52.002;5.956;2023-02-01T15:44:46;8.90;76.50
39045;DHT22;52192;52.002;5.956;2023-02-01T15:47:25;8.60;77.10
39045;DHT22;52192;52.002;5.956;2023-02-01T15:49:55;8.50;77.80
39045;DHT22;52192;52.002;5.956;2023-02-01T15:54:56;8.30;79.00
39045;DHT22;52192;52.002;5.956;2023-02-01T15:57:31;8.30;79.30
39045;DHT22;52192;52.002;5.956;2023-02-01T16:00:07;8.30;79.50
39045;DHT22;52192;52.002;5.956;2023-02-01T16:02:50;8.30;79.50
39045;DHT22;52192;52.002;5.956;2023-02-01T16:05:42;8.30;79.70
39045;DHT22;52192;52.002;5.956;2023-02-01T16:08:14;8.40;80.00
39045;DHT22;52192;52.002;5.956;2023-02-01T16:10:43;8.40;80.10
39045;DHT22;52192;52.002;5.956;2023-02-01T16:13:10;8.40;80.20
39045;DHT22;52192;52.002;5.956;2023-02-01T16:15:36;8.30;80.30
39045;DHT22;52192;52.002;5.956;2023-02-01T16:18:01;8.30;80.60
39045;DHT22;52192;52.002;5.956;2023-02-01T16:20:27;8.40;80.70
39045;DHT22;52192;52.002;5.956;2023-02-01T16:22:53;8.40;81.00
39045;DHT22;52192;52.002;5.956;2023-02-01T16:25:18;8.50;81.10
39045;DHT22;52192;52.002;5.956;2023-02-01T16:27:44;8.60;80.80
39045;DHT22;52192;52.002;5.956;2023-02-01T16:30:10;8.70;80.70
39045;DHT22;52192;52.002;5.956;2023-02-01T16:32:36;8.80;80.20
39045;DHT22;52192;52.002;5.956;2023-02-01T16:35:14;8.80;80.20
39045;DHT22;52192;52.002;5.956;2023-02-01T16:37:44;8.90;79.90
39045;DHT22;52192;52.002;5.956;2023-02-01T16:40:17;9.00;79.70
39045;DHT22;52192;52.002;5.956;2023-02-01T16:42:43;9.10;79.10
39045;DHT22;52192;52.002;5.956;2023-02-01T16:45:10;9.20;78.80
39045;DHT22;52192;52.002;5.956;2023-02-01T16:47:37;9.30;78.50
39045;DHT22;52192;52.002;5.956;2023-02-01T16:50:15;9.30;78.20
39045;DHT22;52192;52.002;5.956;2023-02-01T16:52:42;9.40;78.20
39045;DHT22;52192;52.002;5.956;2023-02-01T16:55:19;9.40;78.00
39045;DHT22;52192;52.002;5.956;2023-02-01T16:57:46;9.50;77.50
39045;DHT22;52192;52.002;5.956;2023-02-01T17:00:13;9.50;77.50
39045;DHT22;52192;52.002;5.956;2023-02-01T17:02:39;9.60;77.40
39045;DHT22;52192;52.002;5.956;2023-02-01T17:05:09;9.60;77.40
39045;DHT22;52192;52.002;5.956;2023-02-01T17:07:35;9.60;77.50
39045;DHT22;52192;52.002;5.956;2023-02-01T17:10:01;9.60;77.70
39045;DHT22;52192;52.002;5.956;2023-02-01T17:12:29;9.60;78.00
39045;DHT22;52192;52.002;5.956;2023-02-01T17:14:56;9.60;78.30
39045;DHT22;52192;52.002;5.956;2023-02-01T17:17:24;9.60;78.40
39045;DHT22;52192;52.002;5.956;2023-02-01T17:19:51;9.60;78.40
39045;DHT22;52192;52.002;5.956;2023-02-01T17:22:21;9.60;78.80
39045;DHT22;52192;52.002;5.956;2023-02-01T17:24:47;9.50;78.80
39045;DHT22;52192;52.002;5.956;2023-02-01T17:27:14;9.40;78.70
39045;DHT22;52192;52.002;5.956;2023-02-01T17:29:40;9.20;78.50
39045;DHT22;52192;52.002;5.956;2023-02-01T17:32:18;8.90;78.60
39045;DHT22;52192;52.002;5.956;2023-02-01T17:34:44;8.80;78.90
39045;DHT22;52192;52.002;5.956;2023-02-01T17:37:27;8.60;79.30
39045;DHT22;52192;52.002;5.956;2023-02-01T17:39:53;8.60;79.50
39045;DHT22;52192;52.002;5.956;2023-02-01T17:42:19;8.50;79.90
39045;DHT22;52192;52.002;5.956;2023-02-01T17:44:45;8.50;80.10
39045;DHT22;52192;52.002;5.956;2023-02-01T17:47:11;8.50;80.30
39045;DHT22;52192;52.002;5.956;2023-02-01T17:49:36;8.60;80.50
39045;DHT22;52192;52.002;5.956;2023-02-01T17:52:04;8.60;80.30
39045;DHT22;52192;52.002;5.956;2023-02-01T17:54:30;8.70;80.40
39045;DHT22;52192;52.002;5.956;2023-02-01T17:56:55;8.80;80.30
39045;DHT22;52192;52.002;5.956;2023-02-01T17:59:25;8.90;80.00
39045;DHT22;52192;52.002;5.956;2023-02-01T18:01:51;9.00;79.70
39045;DHT22;52192;52.002;5.956;2023-02-01T18:04:18;9.10;80.10
39045;DHT22;52192;52.002;5.956;2023-02-01T18:06:46;9.20;79.30
39045;DHT22;52192;52.002;5.956;2023-02-01T18:09:11;9.20;79.00
39045;DHT22;52192;52.002;5.956;2023-02-01T18:11:37;9.30;78.90
39045;DHT22;52192;52.002;5.956;2023-02-01T18:14:02;9.30;78.60
39045;DHT22;52192;52.002;5.956;2023-02-01T18:16:31;9.30;78.20
39045;DHT22;52192;52.002;5.956;2023-02-01T18:18:57;9.40;78.10
39045;DHT22;52192;52.002;5.956;2023-02-01T18:21:40;9.40;77.90
39045;DHT22;52192;52.002;5.956;2023-02-01T18:24:08;9.50;77.90
39045;DHT22;52192;52.002;5.956;2023-02-01T18:26:33;9.60;77.90
39045;DHT22;52192;52.002;5.956;2023-02-01T18:28:59;9.60;78.00
39045;DHT22;52192;52.002;5.956;2023-02-01T18:31:27;9.60;78.20
39045;DHT22;52192;52.002;5.956;2023-02-01T18:33:56;9.60;78.60
39045;DHT22;52192;52.002;5.956;2023-02-01T18:36:22;9.50;79.40
39045;DHT22;52192;52.002;5.956;2023-02-01T18:38:48;9.30;80.40
39045;DHT22;52192;52.002;5.956;2023-02-01T18:41:16;9.10;81.10
39045;DHT22;52192;52.002;5.956;2023-02-01T18:43:43;8.80;81.60
39045;DHT22;52192;52.002;5.956;2023-02-01T18:46:12;8.60;81.30
39045;DHT22;52192;52.002;5.956;2023-02-01T18:48:39;8.40;81.60
39045;DHT22;52192;52.002;5.956;2023-02-01T18:51:05;8.40;81.80
39045;DHT22;52192;52.002;5.956;2023-02-01T18:53:30;8.30;81.90
39045;DHT22;52192;52.002;5.956;2023-02-01T18:55:57;8.40;82.00
39045;DHT22;52192;52.002;5.956;2023-02-01T18:58:24;8.40;82.30
39045;DHT22;52192;52.002;5.956;2023-02-01T19:00:52;8.40;82.20
39045;DHT22;52192;52.002;5.956;2023-02-01T19:03:18;8.40;82.50
39045;DHT22;52192;52.002;5.956;2023-02-01T19:05:45;8.40;82.60
39045;DHT22;52192;52.002;5.956;2023-02-01T19:08:12;8.50;82.90
39045;DHT22;52192;52.002;5.956;2023-02-01T19:10:40;8.40;83.10